sensor_id;sensor_type;location;lat;lon;timestamp;temperature;humidity
40636;DHT22;26642;55.766;37.828;2023-07-28T00:02:10;25.10;91.40
40636;DHT22;26642;55.766;37.828;2023-07-28T00:04:36;25.00;91.40
40636;DHT22;26642;55.766;37.828;2023-07-28T00:07:03;25.10;91.40
40636;DHT22;26642;55.766;37.828;2023-07-28T00:09:29;25.00;91.30
40636;DHT22;26642;55.766;37.828;2023-07-28T00:11:57;25.10;91.30
40636;DHT22;26642;55.766;37.828;2023-07-28T00:14:23;25.10;91.30
40636;DHT22;26642;55.766;37.828;2023-07-28T00:16:55;25.10;91.30
40636;DHT22;26642;55.766;37.828;2023-07-28T00:19:21;25.10;91.60
40636;DHT22;26642;55.766;37.828;2023-07-28T00:21:48;25.00;91.30
40636;DHT22;26642;55.766;37.828;2023-07-28T00:24:14;25.00;91.30
40636;DHT22;26642;55.766;37.828;2023-07-28T00:26:40;25.10;91.20
40636;DHT22;26642;55.766;37.828;2023-07-28T00:29:06;25.00;91.20
40636;DHT22;26642;55.766;37.828;2023-07-28T00:31:34;25.00;91.20
40636;DHT22;26642;55.766;37.828;2023-07-28T00:34:02;25.00;91.20
40636;DHT22;26642;55.766;37.828;2023-07-28T00:36:30;25.10;91.20
40636;DHT22;26642;55.766;37.828;2023-07-28T00:38:56;25.10;91.20
40636;DHT22;26642;55.766;37.828;2023-07-28T00:41:22;25.00;91.20
40636;DHT22;26642;55.766;37.828;2023-07-28T00:43:48;25.00;91.20
40636;DHT22;26642;55.766;37.828;2023-07-28T00:46:15;25.00;91.20
40636;DHT22;26642;55.766;37.828;2023-07-28T00:48:42;25.00;91.30
40636;DHT22;26642;55.766;37.828;2023-07-28T00:51:09;25.00;91.30
40636;DHT22;26642;55.766;37.828;2023-07-28T00:53:35;25.00;91.30
40636;DHT22;26642;55.766;37.828;2023-07-28T00:56:02;25.00;91.30
40636;DHT22;26642;55.766;37.828;2023-07-28T00:58:29;25.00;91.30
40636;DHT22;26642;55.766;37.828;2023-07-28T01:00:55;24.90;91.30
40636;DHT22;26642;55.766;37.828;2023-07-28T01:03:22;24.90;91.30
40636;DHT22;26642;55.766;37.828;2023-07-28T01:06:10;25.00;91.40
40636;DHT22;26642;55.766;37.828;2023-07-28T01:08:46;24.90;91.40
40636;DHT22;26642;55.766;37.828;2023-07-28T01:11:14;25.00;91.40
40636;DHT22;26642;55.766;37.828;2023-07-28T01:13:41;24.90;91.40
40636;DHT22;26642;55.766;37.828;2023-07-28T01:16:07;24.90;91.40
40636;DHT22;26642;55.766;37.828;2023-07-28T01:18:34;24.90;91.50
40636;DHT22;26642;55.766;37.828;2023-07-28T01:21:02;24.90;91.50
40636;DHT22;26642;55.766;37.828;2023-07-28T01:26:37;24.90;91.40
40636;DHT22;26642;55.766;37.828;2023-07-28T01:29:06;24.90;91.50
40636;DHT22;26642;55.766;37.828;2023-07-28T01:31:33;24.90;91.50
40636;DHT22;26642;55.766;37.828;2023-07-28T01:33:59;24.90;91.50
40636;DHT22;26642;55.766;37.828;2023-07-28T01:36:25;24.90;91.60
40636;DHT22;26642;55.766;37.828;2023-07-28T01:38:51;24.90;91.50
40636;DHT22;26642;55.766;37.828;2023-07-28T01:41:17;24.90;91.50
40636;DHT22;26642;55.766;37.828;2023-07-28T01:43:42;24.90;91.60
40636;DHT22;26642;55.766;37.828;2023-07-28T01:46:08;24.80;91.50
40636;DHT22;26642;55.766;37.828;2023-07-28T01:48:35;24.90;91.60
40636;DHT22;26642;55.766;37.828;2023-07-28T01:51:01;24.90;91.60
40636;DHT22;26642;55.766;37.828;2023-07-28T01:53:27;24.80;91.50
40636;DHT22;26642;55.766;37.828;2023-07-28T01:55:53;24.90;91.50
40636;DHT22;26642;55.766;37.828;2023-07-28T01:58:19;24.90;91.50
40636;DHT22;26642;55.766;37.828;2023-07-28T02:00:45;24.90;91.50
40636;DHT22;26642;55.766;37.828;2023-07-28T02:03:12;24.90;91.50
40636;DHT22;26642;55.766;37.828;2023-07-28T02:05:38;24.90;91.50
40636;DHT22;26642;55.766;37.828;2023-07-28T02:08:04;24.80;91.70
40636;DHT22;26642;55.766;37.828;2023-07-28T02:10:30;24.80;91.50
40636;DHT22;26642;55.766;37.828;2023-07-28T02:12:56;24.90;91.50
40636;DHT22;26642;55.766;37.828;2023-07-28T02:15:22;24.90;91.50
40636;DHT22;26642;55.766;37.828;2023-07-28T02:17:48;24.80;91.50
40636;DHT22;26642;55.766;37.828;2023-07-28T02:20:15;24.80;91.50
40636;DHT22;26642;55.766;37.828;2023-07-28T02:22:42;24.80;91.50
40636;DHT22;26642;55.766;37.828;2023-07-28T02:25:09;24.80;91.50
40636;DHT22;26642;55.766;37.828;2023-07-28T02:27:35;24.90;91.50
40636;DHT22;26642;55.766;37.828;2023-07-28T02:30:01;24.80;91.50
40636;DHT22;26642;55.766;37.828;2023-07-28T02:32:29;24.90;91.40
40636;DHT22;26642;55.766;37.828;2023-07-28T02:34:56;24.90;91.30
40636;DHT22;26642;55.766;37.828;2023-07-28T02:37:22;24.90;91.30
40636;DHT22;26642;55.766;37.828;2023-07-28T02:39:48;24.90;91.30
40636;DHT22;26642;55.766;37.828;2023-07-28T02:42:14;24.90;91.30
40636;DHT22;26642;55.766;37.828;2023-07-28T02:44:40;24.90;91.30
40636;DHT22;26642;55.766;37.828;2023-07-28T02:47:07;24.90;91.30
40636;DHT22;26642;55.766;37.828;2023-07-28T02:49:34;24.80;91.30
40636;DHT22;26642;55.766;37.828;2023-07-28T02:52:00;24.80;91.20
40636;DHT22;26642;55.766;37.828;2023-07-28T02:54:26;24.90;91.20
40636;DHT22;26642;55.766;37.828;2023-07-28T02:56:52;24.90;91.20
40636;DHT22;26642;55.766;37.828;2023-07-28T02:59:19;24.90;91.20
40636;DHT22;26642;55.766;37.828;2023-07-28T03:01:45;24.80;91.20
40636;DHT22;26642;55.766;37.828;2023-07-28T03:04:11;24.80;91.20
40636;DHT22;26642;55.766;37.828;2023-07-28T03:07:07;24.90;91.30
40636;DHT22;26642;55.766;37.828;2023-07-28T03:09:35;24.80;91.20
40636;DHT22;26642;55.766;37.828;2023-07-28T03:12:02;24.80;91.10
40636;DHT22;26642;55.766;37.828;2023-07-28T03:14:29;24.90;91.10
40636;DHT22;26642;55.766;37.828;2023-07-28T03:16:55;24.80;91.10
40636;DHT22;26642;55.766;37.828;2023-07-28T03:19:21;24.80;91.00
40636;DHT22;26642;55.766;37.828;2023-07-28T03:21:47;24.80;91.00
40636;DHT22;26642;55.766;37.828;2023-07-28T03:24:13;24.80;91.20
40636;DHT22;26642;55.766;37.828;2023-07-28T03:26:39;24.90;90.90
40636;DHT22;26642;55.766;37.828;2023-07-28T03:29:05;24.90;91.00
40636;DHT22;26642;55.766;37.828;2023-07-28T03:31:31;24.80;90.90
40636;DHT22;26642;55.766;37.828;2023-07-28T03:34:02;24.90;90.90
40636;DHT22;26642;55.766;37.828;2023-07-28T03:36:28;24.80;90.90
40636;DHT22;26642;55.766;37.828;2023-07-28T03:38:55;24.80;90.90
40636;DHT22;26642;55.766;37.828;2023-07-28T03:41:21;24.80;90.90
40636;DHT22;26642;55.766;37.828;2023-07-28T03:43:47;24.80;90.90
40636;DHT22;26642;55.766;37.828;2023-07-28T03:46:13;24.80;91.00
40636;DHT22;26642;55.766;37.828;2023-07-28T03:48:39;24.80;91.10
40636;DHT22;26642;55.766;37.828;2023-07-28T03:51:05;24.80;91.10
40636;DHT22;26642;55.766;37.828;2023-07-28T03:53:31;24.90;91.10
40636;DHT22;26642;55.766;37.828;2023-07-28T03:55:57;24.80;91.10
40636;DHT22;26642;55.766;37.828;2023-07-28T03:58:25;24.80;91.10
40636;DHT22;26642;55.766;37.828;2023-07-28T04:00:52;24.80;91.10
40636;DHT22;26642;55.766;37.828;2023-07-28T04:03:19;24.80;91.20
40636;DHT22;26642;55.766;37.828;2023-07-28T04:05:45;24.80;91.40
40636;DHT22;26642;55.766;37.828;2023-07-28T04:08:11;24.80;91.40
40636;DHT22;26642;55.766;37.828;2023-07-28T04:10:37;24.80;91.30
40636;DHT22;26642;55.766;37.828;2023-07-28T04:13:03;24.80;91.30
40636;DHT22;26642;55.766;37.828;2023-07-28T04:15:29;24.70;91.20
40636;DHT22;26642;55.766;37.828;2023-07-28T04:17:55;24.70;91.30
40636;DHT22;26642;55.766;37.828;2023-07-28T04:20:21;24.70;91.40
40636;DHT22;26642;55.766;37.828;2023-07-28T04:22:47;24.70;91.40
40636;DHT22;26642;55.766;37.828;2023-07-28T04:25:13;24.70;91.40
40636;DHT22;26642;55.766;37.828;2023-07-28T04:27:44;24.70;91.40
40636;DHT22;26642;55.766;37.828;2023-07-28T04:30:10;24.60;91.40
40636;DHT22;26642;55.766;37.828;2023-07-28T04:32:36;24.60;91.40
40636;DHT22;26642;55.766;37.828;2023-07-28T04:35:10;24.60;91.40
40636;DHT22;26642;55.766;37.828;2023-07-28T04:37:55;24.70;91.40
40636;DHT22;26642;55.766;37.828;2023-07-28T04:40:39;24.60;91.50
40636;DHT22;26642;55.766;37.828;2023-07-28T04:43:05;24.60;91.50
40636;DHT22;26642;55.766;37.828;2023-07-28T04:45:31;24.70;91.60
40636;DHT22;26642;55.766;37.828;2023-07-28T04:48:01;24.60;91.60
40636;DHT22;26642;55.766;37.828;2023-07-28T04:50:27;24.70;91.70
40636;DHT22;26642;55.766;37.828;2023-07-28T04:53:12;24.70;91.70
40636;DHT22;26642;55.766;37.828;2023-07-28T04:55:38;24.70;91.70
40636;DHT22;26642;55.766;37.828;2023-07-28T04:58:04;24.70;91.60
40636;DHT22;26642;55.766;37.828;2023-07-28T05:00:42;24.70;91.60
40636;DHT22;26642;55.766;37.828;2023-07-28T05:03:08;24.80;91.70
40636;DHT22;26642;55.766;37.828;2023-07-28T05:05:43;24.80;91.60
40636;DHT22;26642;55.766;37.828;2023-07-28T05:08:10;24.80;91.50
40636;DHT22;26642;55.766;37.828;2023-07-28T05:10:36;24.90;91.50
40636;DHT22;26642;55.766;37.828;2023-07-28T05:13:02;25.00;91.50
40636;DHT22;26642;55.766;37.828;2023-07-28T05:15:30;25.00;91.50
40636;DHT22;26642;55.766;37.828;2023-07-28T05:17:56;25.10;91.30
40636;DHT22;26642;55.766;37.828;2023-07-28T05:20:39;25.30;91.30
40636;DHT22;26642;55.766;37.828;2023-07-28T05:23:11;25.30;91.10
40636;DHT22;26642;55.766;37.828;2023-07-28T05:25:37;25.40;91.00
40636;DHT22;26642;55.766;37.828;2023-07-28T05:28:03;25.50;90.80
40636;DHT22;26642;55.766;37.828;2023-07-28T05:30:33;25.50;90.60
40636;DHT22;26642;55.766;37.828;2023-07-28T05:32:58;25.60;90.50
40636;DHT22;26642;55.766;37.828;2023-07-28T05:35:45;25.70;90.30
40636;DHT22;26642;55.766;37.828;2023-07-28T05:38:11;25.80;90.10
40636;DHT22;26642;55.766;37.828;2023-07-28T05:40:37;25.90;90.10
40636;DHT22;26642;55.766;37.828;2023-07-28T05:43:02;26.00;89.90
40636;DHT22;26642;55.766;37.828;2023-07-28T05:45:29;26.00;89.70
40636;DHT22;26642;55.766;37.828;2023-07-28T05:47:54;26.10;89.40
40636;DHT22;26642;55.766;37.828;2023-07-28T05:50:20;26.10;89.20
40636;DHT22;26642;55.766;37.828;2023-07-28T05:52:47;26.20;88.90
40636;DHT22;26642;55.766;37.828;2023-07-28T05:55:13;26.30;88.70
40636;DHT22;26642;55.766;37.828;2023-07-28T05:57:39;26.30;88.40
40636;DHT22;26642;55.766;37.828;2023-07-28T06:00:07;26.30;88.10
40636;DHT22;26642;55.766;37.828;2023-07-28T06:02:39;26.30;87.90
40636;DHT22;26642;55.766;37.828;2023-07-28T06:05:08;26.30;87.90
40636;DHT22;26642;55.766;37.828;2023-07-28T06:07:34;26.40;87.90
40636;DHT22;26642;55.766;37.828;2023-07-28T06:10:00;26.40;88.00
40636;DHT22;26642;55.766;37.828;2023-07-28T06:12:26;26.40;87.80
40636;DHT22;26642;55.766;37.828;2023-07-28T06:14:52;26.40;87.80
40636;DHT22;26642;55.766;37.828;2023-07-28T06:17:18;26.40;87.80
40636;DHT22;26642;55.766;37.828;2023-07-28T06:19:44;26.40;87.90
40636;DHT22;26642;55.766;37.828;2023-07-28T06:22:11;26.30;87.70
40636;DHT22;26642;55.766;37.828;2023-07-28T06:24:41;26.40;87.90
40636;DHT22;26642;55.766;37.828;2023-07-28T06:27:07;26.40;88.10
40636;DHT22;26642;55.766;37.828;2023-07-28T06:29:37;26.40;88.00
40636;DHT22;26642;55.766;37.828;2023-07-28T06:32:03;26.50;88.00
40636;DHT22;26642;55.766;37.828;2023-07-28T06:34:29;26.50;87.90
40636;DHT22;26642;55.766;37.828;2023-07-28T06:36:56;26.50;87.80
40636;DHT22;26642;55.766;37.828;2023-07-28T06:39:23;26.60;87.20
40636;DHT22;26642;55.766;37.828;2023-07-28T06:41:50;26.60;86.80
40636;DHT22;26642;55.766;37.828;2023-07-28T06:44:18;26.60;86.70
40636;DHT22;26642;55.766;37.828;2023-07-28T06:46:45;26.60;86.80
40636;DHT22;26642;55.766;37.828;2023-07-28T06:49:11;26.60;86.50
40636;DHT22;26642;55.766;37.828;2023-07-28T06:51:37;26.60;86.60
40636;DHT22;26642;55.766;37.828;2023-07-28T06:54:03;26.60;86.60
40636;DHT22;26642;55.766;37.828;2023-07-28T06:56:29;26.40;87.00
40636;DHT22;26642;55.766;37.828;2023-07-28T06:58:54;26.40;87.30
40636;DHT22;26642;55.766;37.828;2023-07-28T07:01:21;26.40;87.70
40636;DHT22;26642;55.766;37.828;2023-07-28T07:03:47;26.30;87.70
40636;DHT22;26642;55.766;37.828;2023-07-28T07:06:13;26.30;88.00
40636;DHT22;26642;55.766;37.828;2023-07-28T07:08:39;26.30;88.30
40636;DHT22;26642;55.766;37.828;2023-07-28T07:11:05;26.20;88.20
40636;DHT22;26642;55.766;37.828;2023-07-28T07:13:31;26.20;88.30
40636;DHT22;26642;55.766;37.828;2023-07-28T07:15:57;26.20;88.50
40636;DHT22;26642;55.766;37.828;2023-07-28T07:18:23;26.20;88.50
40636;DHT22;26642;55.766;37.828;2023-07-28T07:20:49;26.20;88.40
40636;DHT22;26642;55.766;37.828;2023-07-28T07:23:15;26.10;88.40
40636;DHT22;26642;55.766;37.828;2023-07-28T07:25:42;26.10;88.40
40636;DHT22;26642;55.766;37.828;2023-07-28T07:28:08;26.10;88.40
40636;DHT22;26642;55.766;37.828;2023-07-28T07:30:34;26.10;88.50
40636;DHT22;26642;55.766;37.828;2023-07-28T07:33:00;26.10;89.20
40636;DHT22;26642;55.766;37.828;2023-07-28T07:35:26;26.10;88.80
40636;DHT22;26642;55.766;37.828;2023-07-28T07:37:52;26.10;89.00
40636;DHT22;26642;55.766;37.828;2023-07-28T07:40:18;26.10;89.00
40636;DHT22;26642;55.766;37.828;2023-07-28T07:42:48;26.10;88.80
40636;DHT22;26642;55.766;37.828;2023-07-28T07:45:15;26.10;88.70
40636;DHT22;26642;55.766;37.828;2023-07-28T07:47:41;26.20;88.70
40636;DHT22;26642;55.766;37.828;2023-07-28T07:50:09;26.20;88.70
40636;DHT22;26642;55.766;37.828;2023-07-28T07:52:36;26.10;89.80
40636;DHT22;26642;55.766;37.828;2023-07-28T07:55:03;26.10;89.60
40636;DHT22;26642;55.766;37.828;2023-07-28T07:57:29;26.10;89.40
40636;DHT22;26642;55.766;37.828;2023-07-28T07:59:57;26.20;89.40
40636;DHT22;26642;55.766;37.828;2023-07-28T08:02:23;26.20;89.40
40636;DHT22;26642;55.766;37.828;2023-07-28T08:04:48;26.20;89.70
40636;DHT22;26642;55.766;37.828;2023-07-28T08:07:15;26.10;89.90
40636;DHT22;26642;55.766;37.828;2023-07-28T08:09:42;26.20;90.20
40636;DHT22;26642;55.766;37.828;2023-07-28T08:12:08;26.20;90.10
40636;DHT22;26642;55.766;37.828;2023-07-28T08:14:34;26.30;90.00
40636;DHT22;26642;55.766;37.828;2023-07-28T08:17:00;26.30;90.00
40636;DHT22;26642;55.766;37.828;2023-07-28T08:19:26;26.40;89.90
40636;DHT22;26642;55.766;37.828;2023-07-28T08:21:52;26.40;89.90
40636;DHT22;26642;55.766;37.828;2023-07-28T08:24:18;26.40;89.60
40636;DHT22;26642;55.766;37.828;2023-07-28T08:26:44;26.40;89.40
40636;DHT22;26642;55.766;37.828;2023-07-28T08:29:10;26.50;89.60
40636;DHT22;26642;55.766;37.828;2023-07-28T08:31:35;26.60;89.30
40636;DHT22;26642;55.766;37.828;2023-07-28T08:34:02;26.60;88.80
40636;DHT22;26642;55.766;37.828;2023-07-28T08:36:28;26.60;88.50
40636;DHT22;26642;55.766;37.828;2023-07-28T08:38:54;26.60;87.90
40636;DHT22;26642;55.766;37.828;2023-07-28T08:41:20;26.70;88.10
40636;DHT22;26642;55.766;37.828;2023-07-28T08:43:46;26.70;88.40
40636;DHT22;26642;55.766;37.828;2023-07-28T08:46:12;26.70;88.50
40636;DHT22;26642;55.766;37.828;2023-07-28T08:48:39;26.80;88.50
40636;DHT22;26642;55.766;37.828;2023-07-28T08:51:05;26.80;88.50
40636;DHT22;26642;55.766;37.828;2023-07-28T08:53:31;26.80;88.40
40636;DHT22;26642;55.766;37.828;2023-07-28T08:55:57;26.80;88.40
40636;DHT22;26642;55.766;37.828;2023-07-28T08:58:23;26.80;88.30
40636;DHT22;26642;55.766;37.828;2023-07-28T09:00:51;26.80;88.40
40636;DHT22;26642;55.766;37.828;2023-07-28T09:03:18;26.90;88.20
40636;DHT22;26642;55.766;37.828;2023-07-28T09:05:45;26.90;88.10
40636;DHT22;26642;55.766;37.828;2023-07-28T09:08:17;26.90;88.00
40636;DHT22;26642;55.766;37.828;2023-07-28T09:10:48;26.90;87.70
40636;DHT22;26642;55.766;37.828;2023-07-28T09:13:23;26.90;86.30
40636;DHT22;26642;55.766;37.828;2023-07-28T09:15:49;26.90;86.90
40636;DHT22;26642;55.766;37.828;2023-07-28T09:18:17;26.90;85.00
40636;DHT22;26642;55.766;37.828;2023-07-28T09:20:43;26.90;85.30
40636;DHT22;26642;55.766;37.828;2023-07-28T09:23:13;26.90;85.70
40636;DHT22;26642;55.766;37.828;2023-07-28T09:25:40;26.90;85.50
40636;DHT22;26642;55.766;37.828;2023-07-28T09:28:06;26.90;85.40
40636;DHT22;26642;55.766;37.828;2023-07-28T09:30:48;26.80;85.00
40636;DHT22;26642;55.766;37.828;2023-07-28T09:33:32;26.80;84.90
40636;DHT22;26642;55.766;37.828;2023-07-28T09:36:10;26.80;85.30
40636;DHT22;26642;55.766;37.828;2023-07-28T09:38:38;26.80;86.10
40636;DHT22;26642;55.766;37.828;2023-07-28T09:41:10;26.80;85.50
40636;DHT22;26642;55.766;37.828;2023-07-28T09:43:37;26.80;85.40
40636;DHT22;26642;55.766;37.828;2023-07-28T09:46:06;26.80;85.30
40636;DHT22;26642;55.766;37.828;2023-07-28T09:48:34;26.80;85.50
40636;DHT22;26642;55.766;37.828;2023-07-28T09:51:12;26.70;85.20
40636;DHT22;26642;55.766;37.828;2023-07-28T09:53:48;26.70;85.50
40636;DHT22;26642;55.766;37.828;2023-07-28T09:56:15;26.70;86.00
40636;DHT22;26642;55.766;37.828;2023-07-28T09:58:51;26.70;85.60
40636;DHT22;26642;55.766;37.828;2023-07-28T10:01:19;26.70;85.50
40636;DHT22;26642;55.766;37.828;2023-07-28T10:03:47;26.70;85.90
40636;DHT22;26642;55.766;37.828;2023-07-28T10:06:14;26.70;85.90
40636;DHT22;26642;55.766;37.828;2023-07-28T10:08:43;26.60;86.10
40636;DHT22;26642;55.766;37.828;2023-07-28T10:11:13;26.60;86.60
40636;DHT22;26642;55.766;37.828;2023-07-28T10:13:45;26.60;86.80
40636;DHT22;26642;55.766;37.828;2023-07-28T10:16:12;26.60;87.30
40636;DHT22;26642;55.766;37.828;2023-07-28T10:18:42;26.60;87.20
40636;DHT22;26642;55.766;37.828;2023-07-28T10:21:16;26.50;87.10
40636;DHT22;26642;55.766;37.828;2023-07-28T10:23:44;26.50;87.10
40636;DHT22;26642;55.766;37.828;2023-07-28T10:26:10;26.60;87.10
40636;DHT22;26642;55.766;37.828;2023-07-28T10:28:37;26.50;87.00
40636;DHT22;26642;55.766;37.828;2023-07-28T10:31:10;26.50;86.90
40636;DHT22;26642;55.766;37.828;2023-07-28T10:33:38;26.50;86.80
40636;DHT22;26642;55.766;37.828;2023-07-28T10:36:32;26.50;87.50
40636;DHT22;26642;55.766;37.828;2023-07-28T10:41:35;26.50;87.10
40636;DHT22;26642;55.766;37.828;2023-07-28T10:44:02;26.50;87.10
40636;DHT22;26642;55.766;37.828;2023-07-28T10:46:29;26.50;87.10
40636;DHT22;26642;55.766;37.828;2023-07-28T10:48:55;26.50;87.10
40636;DHT22;26642;55.766;37.828;2023-07-28T10:51:22;26.50;87.30
40636;DHT22;26642;55.766;37.828;2023-07-28T10:53:56;26.50;87.40
40636;DHT22;26642;55.766;37.828;2023-07-28T10:56:23;26.50;87.50
40636;DHT22;26642;55.766;37.828;2023-07-28T10:59:00;26.60;87.50
40636;DHT22;26642;55.766;37.828;2023-07-28T11:01:33;26.60;87.40
40636;DHT22;26642;55.766;37.828;2023-07-28T11:04:25;26.60;87.30
40636;DHT22;26642;55.766;37.828;2023-07-28T11:06:51;26.60;87.40
40636;DHT22;26642;55.766;37.828;2023-07-28T11:09:19;26.60;87.40
40636;DHT22;26642;55.766;37.828;2023-07-28T11:11:48;26.60;87.40
40636;DHT22;26642;55.766;37.828;2023-07-28T11:14:16;26.70;87.30
40636;DHT22;26642;55.766;37.828;2023-07-28T11:16:43;26.70;87.70
40636;DHT22;26642;55.766;37.828;2023-07-28T11:19:16;26.70;88.00
40636;DHT22;26642;55.766;37.828;2023-07-28T11:21:45;26.70;87.70
40636;DHT22;26642;55.766;37.828;2023-07-28T11:24:18;26.60;87.40
40636;DHT22;26642;55.766;37.828;2023-07-28T11:26:45;26.60;87.50
40636;DHT22;26642;55.766;37.828;2023-07-28T11:29:14;26.70;87.80
40636;DHT22;26642;55.766;37.828;2023-07-28T11:31:41;26.70;87.70
40636;DHT22;26642;55.766;37.828;2023-07-28T11:34:14;26.70;87.90
40636;DHT22;26642;55.766;37.828;2023-07-28T11:36:41;26.60;88.00
40636;DHT22;26642;55.766;37.828;2023-07-28T11:39:07;26.70;88.20
40636;DHT22;26642;55.766;37.828;2023-07-28T11:41:34;26.60;88.20
40636;DHT22;26642;55.766;37.828;2023-07-28T11:44:00;26.60;88.50
40636;DHT22;26642;55.766;37.828;2023-07-28T11:46:38;26.60;88.40
40636;DHT22;26642;55.766;37.828;2023-07-28T11:49:18;26.70;88.50
40636;DHT22;26642;55.766;37.828;2023-07-28T11:51:49;26.60;88.60
40636;DHT22;26642;55.766;37.828;2023-07-28T11:54:17;26.60;88.50
40636;DHT22;26642;55.766;37.828;2023-07-28T11:56:48;26.70;88.60
40636;DHT22;26642;55.766;37.828;2023-07-28T11:59:19;26.70;88.40
40636;DHT22;26642;55.766;37.828;2023-07-28T12:02:02;26.70;88.40
40636;DHT22;26642;55.766;37.828;2023-07-28T12:04:30;26.70;88.60
40636;DHT22;26642;55.766;37.828;2023-07-28T12:09:52;26.80;88.60
40636;DHT22;26642;55.766;37.828;2023-07-28T12:12:20;26.80;88.60
40636;DHT22;26642;55.766;37.828;2023-07-28T12:14:46;26.80;88.60
40636;DHT22;26642;55.766;37.828;2023-07-28T12:17:20;26.80;88.60
40636;DHT22;26642;55.766;37.828;2023-07-28T12:19:58;26.70;88.60
40636;DHT22;26642;55.766;37.828;2023-07-28T12:22:28;26.60;88.70
40636;DHT22;26642;55.766;37.828;2023-07-28T12:24:54;26.70;88.70
40636;DHT22;26642;55.766;37.828;2023-07-28T12:27:20;26.60;88.70
40636;DHT22;26642;55.766;37.828;2023-07-28T12:29:49;26.50;88.60
40636;DHT22;26642;55.766;37.828;2023-07-28T12:32:16;26.50;88.40
40636;DHT22;26642;55.766;37.828;2023-07-28T12:34:42;26.50;88.50
40636;DHT22;26642;55.766;37.828;2023-07-28T12:37:08;26.50;88.40
40636;DHT22;26642;55.766;37.828;2023-07-28T12:39:38;26.50;88.70
40636;DHT22;26642;55.766;37.828;2023-07-28T12:42:10;26.40;88.70
40636;DHT22;26642;55.766;37.828;2023-07-28T12:44:37;26.40;88.70
40636;DHT22;26642;55.766;37.828;2023-07-28T12:47:03;26.40;88.70
40636;DHT22;26642;55.766;37.828;2023-07-28T12:49:30;26.40;88.90
40636;DHT22;26642;55.766;37.828;2023-07-28T12:52:00;26.40;89.10
40636;DHT22;26642;55.766;37.828;2023-07-28T12:54:27;26.40;89.20
40636;DHT22;26642;55.766;37.828;2023-07-28T12:56:55;26.40;89.70
40636;DHT22;26642;55.766;37.828;2023-07-28T12:59:21;26.40;89.80
40636;DHT22;26642;55.766;37.828;2023-07-28T13:01:47;26.40;89.90
40636;DHT22;26642;55.766;37.828;2023-07-28T13:04:13;26.40;90.00
40636;DHT22;26642;55.766;37.828;2023-07-28T13:06:39;26.30;89.90
40636;DHT22;26642;55.766;37.828;2023-07-28T13:09:07;26.30;89.80
40636;DHT22;26642;55.766;37.828;2023-07-28T13:11:36;26.30;89.90
40636;DHT22;26642;55.766;37.828;2023-07-28T13:14:02;26.30;89.70
40636;DHT22;26642;55.766;37.828;2023-07-28T13:16:28;26.20;89.60
40636;DHT22;26642;55.766;37.828;2023-07-28T13:18:54;26.20;89.90
40636;DHT22;26642;55.766;37.828;2023-07-28T13:21:21;26.30;90.00
40636;DHT22;26642;55.766;37.828;2023-07-28T13:23:47;26.30;90.00
40636;DHT22;26642;55.766;37.828;2023-07-28T13:26:14;26.20;90.00
40636;DHT22;26642;55.766;37.828;2023-07-28T13:28:40;26.20;90.00
40636;DHT22;26642;55.766;37.828;2023-07-28T13:31:15;26.20;89.40
40636;DHT22;26642;55.766;37.828;2023-07-28T13:33:42;26.20;89.50
40636;DHT22;26642;55.766;37.828;2023-07-28T13:36:08;26.20;89.30
40636;DHT22;26642;55.766;37.828;2023-07-28T13:38:35;26.30;89.10
40636;DHT22;26642;55.766;37.828;2023-07-28T13:41:06;26.20;89.10
40636;DHT22;26642;55.766;37.828;2023-07-28T13:43:33;26.20;89.10
40636;DHT22;26642;55.766;37.828;2023-07-28T13:46:02;26.20;89.00
40636;DHT22;26642;55.766;37.828;2023-07-28T13:48:28;26.10;89.00
40636;DHT22;26642;55.766;37.828;2023-07-28T13:50:54;26.10;89.10
40636;DHT22;26642;55.766;37.828;2023-07-28T13:53:20;26.20;89.30
40636;DHT22;26642;55.766;37.828;2023-07-28T13:55:46;26.10;89.00
40636;DHT22;26642;55.766;37.828;2023-07-28T13:58:12;26.20;89.20
40636;DHT22;26642;55.766;37.828;2023-07-28T14:00:38;26.10;89.30
40636;DHT22;26642;55.766;37.828;2023-07-28T14:03:04;26.20;89.20
40636;DHT22;26642;55.766;37.828;2023-07-28T14:05:30;26.10;89.00
40636;DHT22;26642;55.766;37.828;2023-07-28T14:07:56;26.20;88.90
40636;DHT22;26642;55.766;37.828;2023-07-28T14:10:22;26.10;88.90
40636;DHT22;26642;55.766;37.828;2023-07-28T14:12:49;26.20;88.50
40636;DHT22;26642;55.766;37.828;2023-07-28T14:15:15;26.10;88.20
40636;DHT22;26642;55.766;37.828;2023-07-28T14:17:41;26.10;88.10
40636;DHT22;26642;55.766;37.828;2023-07-28T14:20:07;26.10;88.20
40636;DHT22;26642;55.766;37.828;2023-07-28T14:22:35;26.10;87.30
40636;DHT22;26642;55.766;37.828;2023-07-28T14:25:01;26.10;86.70
40636;DHT22;26642;55.766;37.828;2023-07-28T14:27:27;26.00;86.50
40636;DHT22;26642;55.766;37.828;2023-07-28T14:29:53;26.00;87.00
40636;DHT22;26642;55.766;37.828;2023-07-28T14:32:19;25.90;86.60
40636;DHT22;26642;55.766;37.828;2023-07-28T14:34:45;25.90;86.50
40636;DHT22;26642;55.766;37.828;2023-07-28T14:37:11;25.90;86.60
40636;DHT22;26642;55.766;37.828;2023-07-28T14:39:37;25.80;86.80
40636;DHT22;26642;55.766;37.828;2023-07-28T14:42:03;25.80;86.40
40636;DHT22;26642;55.766;37.828;2023-07-28T14:44:29;25.80;86.60
40636;DHT22;26642;55.766;37.828;2023-07-28T14:46:55;25.80;86.70
40636;DHT22;26642;55.766;37.828;2023-07-28T14:49:21;25.80;86.70
40636;DHT22;26642;55.766;37.828;2023-07-28T14:51:47;25.80;87.20
40636;DHT22;26642;55.766;37.828;2023-07-28T14:54:13;25.70;86.60
40636;DHT22;26642;55.766;37.828;2023-07-28T14:56:39;25.70;86.50
40636;DHT22;26642;55.766;37.828;2023-07-28T14:59:05;25.70;86.80
40636;DHT22;26642;55.766;37.828;2023-07-28T15:01:31;25.70;86.80
40636;DHT22;26642;55.766;37.828;2023-07-28T15:03:58;25.70;86.80
40636;DHT22;26642;55.766;37.828;2023-07-28T15:06:27;25.70;86.60
40636;DHT22;26642;55.766;37.828;2023-07-28T15:08:53;25.60;86.30
40636;DHT22;26642;55.766;37.828;2023-07-28T15:11:19;25.60;86.70
40636;DHT22;26642;55.766;37.828;2023-07-28T15:13:45;25.50;86.60
40636;DHT22;26642;55.766;37.828;2023-07-28T15:16:11;25.50;86.60
40636;DHT22;26642;55.766;37.828;2023-07-28T15:18:39;25.60;86.80
40636;DHT22;26642;55.766;37.828;2023-07-28T15:21:05;25.50;86.60
40636;DHT22;26642;55.766;37.828;2023-07-28T15:23:31;25.50;86.60
40636;DHT22;26642;55.766;37.828;2023-07-28T15:25:57;25.50;86.70
40636;DHT22;26642;55.766;37.828;2023-07-28T15:28:23;25.50;86.90